No particular awareness of the weather is required.    There are no Weather-warnings


Meteo18 Weather Cam more information Meteo18 Weather Cam


Thunder radar more information blitzortung!


Rain radar more information rain snow radar


Visit our other weather sites:

Template documentation
and downloads

And another site



Weather Underground History page Text

Daily Summary for February 11, 2016 Units:  Metric    English   Both
« Previous Day
Next Day »
Daily Weekly Monthly Yearly Custom
  High: Low: Average:
Temperature: -17.8 °C -19.2 °C -17.1 °C
Dew Point: -17.8 °C -19.4 °C -17.6 °C
Humidity: Humidity % 90 % 94 %
Wind Speed: 0 km/h 0 km/h 0.3 km/h
Wind Gust: 0 km/h - -
Wind:- - SW
Pressure: 0 hPa 34086.9 hPa -
Precipitation: 38.1 mm    
Historical Graphs
 
 
Tabular Data for February 11, 2016
Time Temperature Dew Point Pressure Wind Wind Speed Wind Gust Humidity Rainfall Rate (Hourly)
-17.8 °C -17.8 °C 0 hPa Calm     Humidity % 0 mm
00:02 -17.3 °C -17.9 °C 34120.7 hPa Calm   2.6 km/h 92 % 0 mm
00:07 -17.3 °C -17.9 °C 34120.7 hPa Calm   2.6 km/h 92 % 0 mm
00:12 -17.3 °C -17.9 °C 34120.7 hPa Calm   2.6 km/h 92 % 0 mm
00:17 -17.3 °C -17.8 °C 34120.7 hPa Calm   2.6 km/h 93 % 0 mm
00:22 -17.4 °C -18.1 °C 34120.7 hPa Calm   2.6 km/h 92 % 0 mm
00:27 -17.6 °C -18.2 °C 34120.7 hPa Calm   2.6 km/h 92 % 0 mm
00:32 -17.7 °C -18.4 °C 34120.7 hPa Calm   2.6 km/h 91 % 0 mm
00:37 -17.9 °C -18.5 °C 34130.9 hPa Calm     92 % 0 mm
00:42 -18.1 °C -18.7 °C 34120.7 hPa Calm     92 % 0 mm
00:47 -18.2 °C -18.8 °C 34130.9 hPa Calm     92 % 0 mm
00:52 -18.1 °C -18.7 °C 34130.9 hPa Calm     93 % 0 mm
00:57 -18.1 °C -18.6 °C 34130.9 hPa Calm     94 % 0 mm
01:02 -18 °C -18.4 °C 34130.9 hPa Calm     95 % 0 mm
01:07 -18 °C -18.4 °C 34130.9 hPa Calm     95 % 0 mm
01:12 -18 °C -18.4 °C 34130.9 hPa Calm     95 % 0 mm
01:17 -18 °C -18.4 °C 34130.9 hPa Calm     95 % 0 mm
01:22 -17.9 °C -18.3 °C 34130.9 hPa Calm   2.6 km/h 95 % 0 mm
01:27 -17.9 °C -18.3 °C 34130.9 hPa Calm   2.6 km/h 95 % 0 mm
01:37 -18.1 °C -18.6 °C 34130.9 hPa Calm   2.6 km/h 94 % 0 mm
01:42 -18.2 °C -18.7 °C 34130.9 hPa Calm   2.6 km/h 94 % 0 mm
01:47 -18.2 °C -18.6 °C 34130.9 hPa Calm   2.6 km/h 95 % 0 mm
01:52 -18.1 °C -18.4 °C 34130.9 hPa Calm   2.6 km/h 96 % 0 mm
01:57 -17.9 °C -18.3 °C 34130.9 hPa Calm   5.1 km/h 96 % 0 mm
02:02 -17.8 °C -18.2 °C 34130.9 hPa Calm   5.1 km/h 96 % 0 mm
02:07 -17.9 °C -18.3 °C 34130.9 hPa Calm   5.1 km/h 95 % 0 mm
02:12 -17.9 °C -18.3 °C 34144.4 hPa Calm   2.6 km/h 95 % 0 mm
02:22 -18.1 °C -18.5 °C 34144.4 hPa Calm   2.6 km/h 95 % 0 mm
02:27 -18.2 °C -18.6 °C 34144.4 hPa Calm   2.6 km/h 95 % 0 mm
02:32 -18.2 °C -18.6 °C 34144.4 hPa Calm   2.6 km/h 95 % 0 mm
02:37 -18.2 °C -18.6 °C 34144.4 hPa Calm   2.6 km/h 95 % 0 mm
02:42 -18.2 °C -18.6 °C 34144.4 hPa Calm   2.6 km/h 95 % 0 mm
02:47 -18.2 °C -18.6 °C 34144.4 hPa Calm   2.6 km/h 95 % 0 mm
02:52 -18.3 °C -18.7 °C 34144.4 hPa Calm   2.6 km/h 95 % 0 mm
02:57 -18.4 °C -18.8 °C 34144.4 hPa Calm     95 % 0 mm
03:02 -18.5 °C -18.9 °C 34144.4 hPa Calm     95 % 0 mm
03:07 -18.5 °C -18.8 °C 34144.4 hPa Calm     96 % 0 mm
03:12 -18.5 °C -18.9 °C 34144.4 hPa Calm     95 % 0 mm
03:17 -18.6 °C -18.9 °C 34144.4 hPa Calm     95 % 0 mm
03:22 -18.7 °C -19.1 °C 34130.9 hPa Calm     95 % 0 mm
03:32 -18.7 °C -19.1 °C 34144.4 hPa Calm     96 % 0 mm
03:37 -18.8 °C -19.1 °C 34144.4 hPa Calm     96 % 0 mm
03:42 -18.7 °C -19.1 °C 34130.9 hPa Calm     96 % 0 mm
03:47 -18.7 °C -19.1 °C 34144.4 hPa Calm     96 % 0 mm
03:57 -18.7 °C -19.1 °C 34130.9 hPa Calm   2.6 km/h 96 % 0 mm
04:02 -18.8 °C -19.1 °C 34130.9 hPa Calm   2.6 km/h 96 % 0 mm
04:07 -18.8 °C -19.2 °C 34130.9 hPa Calm   2.6 km/h 96 % 0 mm
04:12 -18.9 °C -19.3 °C 34130.9 hPa Calm     96 % 0 mm
04:22 -18.9 °C -19.2 °C 34130.9 hPa Calm     97 % 0 mm
04:27 -18.9 °C -19.2 °C 34130.9 hPa Calm     97 % 0 mm
04:32 -18.9 °C -19.2 °C 34130.9 hPa Calm     97 % 0 mm
04:37 -18.9 °C -19.2 °C 34130.9 hPa Calm     97 % 0 mm
04:42 -18.9 °C -19.2 °C 34144.4 hPa Calm   2.6 km/h 97 % 0 mm
04:47 -18.9 °C -19.3 °C 34130.9 hPa Calm   2.6 km/h 96 % 0 mm
04:52 -19 °C -19.3 °C 34144.4 hPa Calm   2.6 km/h 96 % 0 mm
04:57 -19 °C -19.3 °C 34144.4 hPa Calm     96 % 0 mm
05:07 -19.1 °C -19.4 °C 34144.4 hPa Calm     96 % 0 mm
05:12 -19.1 °C -19.4 °C 34144.4 hPa Calm     96 % 0 mm
05:17 -19.2 °C -19.4 °C 34144.4 hPa Calm     96 % 0 mm
05:22 -19.1 °C -19.4 °C 34144.4 hPa Calm     96 % 0 mm
05:27 -18.9 °C -19.2 °C 34144.4 hPa Calm     97 % 0 mm
05:32 -18.8 °C -19.1 °C 34144.4 hPa Calm     97 % 0 mm
05:37 -18.8 °C -19.1 °C 34144.4 hPa Calm     97 % 0 mm
05:42 -18.9 °C -19.1 °C 34144.4 hPa Calm     97 % 0 mm
05:47 -18.9 °C -19.2 °C 34144.4 hPa Calm     97 % 0 mm
05:52 -19 °C -19.2 °C 34144.4 hPa Calm     97 % 0 mm
05:57 -18.9 °C -19.1 °C 34144.4 hPa Calm   2.6 km/h 97 % 0 mm
06:14 -18.7 °C -18.9 °C 34144.4 hPa Calm   2.6 km/h 97 % 0 mm
06:22 -18.8 °C -19 °C 34144.4 hPa Calm     97 % 0 mm
06:27 -18.8 °C -19 °C 34144.4 hPa Calm     97 % 0 mm
06:32 -18.7 °C -18.9 °C 34144.4 hPa Calm     97 % 0 mm
06:47 -18.7 °C -18.9 °C 34144.4 hPa Calm     97 % 0 mm
06:52 -18.6 °C -18.8 °C 34144.4 hPa Calm     97 % 0 mm
06:57 -18.6 °C -18.8 °C 34144.4 hPa Calm     97 % 0 mm
07:02 -18.6 °C -18.8 °C 34144.4 hPa Calm     97 % 0 mm
07:07 -18.6 °C -18.8 °C 34144.4 hPa Calm   2.6 km/h 97 % 0 mm
07:12 -18.6 °C -18.8 °C 34144.4 hPa Calm   2.6 km/h 97 % 0 mm
07:17 -18.6 °C -18.8 °C 34130.9 hPa Calm   2.6 km/h 97 % 0 mm
07:22 -18.6 °C -18.8 °C 34130.9 hPa Calm   2.6 km/h 97 % 0 mm
07:27 -18.6 °C -18.8 °C 34130.9 hPa Calm     97 % 0 mm
07:37 -18.6 °C -18.8 °C 34130.9 hPa Calm     97 % 0 mm
07:42 -18.7 °C -18.9 °C 34130.9 hPa Calm     97 % 0 mm
07:47 -18.6 °C -18.8 °C 34130.9 hPa Calm     97 % 0 mm
07:52 -18.6 °C -18.8 °C 34130.9 hPa Calm     97 % 0 mm
07:57 -18.6 °C -18.8 °C 34130.9 hPa Calm     97 % 0 mm
08:02 -18.6 °C -18.8 °C 34130.9 hPa Calm     97 % 0 mm
08:12 -18.6 °C -18.8 °C 34130.9 hPa Calm     97 % 0 mm
08:22 -18.5 °C -18.7 °C 34130.9 hPa Calm     97 % 0 mm
08:27 -18.5 °C -18.7 °C 34130.9 hPa Calm     97 % 0 mm
08:32 -18.5 °C -18.7 °C 34130.9 hPa Calm     97 % 0 mm
08:37 -18.4 °C -18.7 °C 34130.9 hPa Calm     97 % 0 mm
08:42 -18.4 °C -18.7 °C 34130.9 hPa Calm     97 % 0 mm
08:52 -18.4 °C -18.6 °C 34144.4 hPa Calm     97 % 0 mm
08:57 -18.4 °C -18.6 °C 34144.4 hPa Calm     97 % 0 mm
09:02 -18.3 °C -18.5 °C 34144.4 hPa Calm     97 % 0 mm
09:07 -18.3 °C -18.5 °C 34144.4 hPa Calm     97 % 0 mm
09:12 -18.2 °C -18.4 °C 34144.4 hPa Calm     97 % 0 mm
09:22 -18.2 °C -18.4 °C 34144.4 hPa Calm     97 % 0 mm
09:27 -18.1 °C -18.3 °C 34130.9 hPa Calm     97 % 0 mm
09:37 -18 °C -18.2 °C 34144.4 hPa Calm     97 % 0 mm
09:42 -17.9 °C -18.1 °C 34130.9 hPa Calm     97 % 0 mm
09:47 -17.8 °C -18.1 °C 34130.9 hPa Calm     97 % 0 mm
09:52 -17.8 °C -18.1 °C 34144.4 hPa Calm     97 % 0 mm
09:57 -17.7 °C -17.9 °C 34130.9 hPa Calm     97 % 0 mm
10:02 -17.7 °C -17.9 °C 34144.4 hPa Calm     97 % 0 mm
10:07 -17.7 °C -17.9 °C 34130.9 hPa Calm     97 % 0 mm
10:12 -17.7 °C -17.9 °C 34130.9 hPa Calm     97 % 0 mm
10:17 -17.6 °C -17.8 °C 34130.9 hPa Calm     97 % 0 mm
10:27 -17.6 °C -17.8 °C 34130.9 hPa Calm   2.6 km/h 97 % 0 mm
10:32 -17.5 °C -17.7 °C 34130.9 hPa Calm   2.6 km/h 97 % 0 mm
10:37 -17.4 °C -17.6 °C 34130.9 hPa Calm   2.6 km/h 97 % 0 mm
10:42 -17.3 °C -17.6 °C 34130.9 hPa Calm   2.6 km/h 97 % 0 mm
10:52 -17 °C -17.2 °C 34120.7 hPa West 2.6 km/h   97 % 0 mm
11:02 -16.9 °C -17.1 °C 34120.7 hPa Calm   2.6 km/h 97 % 0 mm
11:12 -16.7 °C -17.1 °C 34130.9 hPa Calm   5.1 km/h 96 % 0 mm
11:17 -16.7 °C -17.1 °C 34120.7 hPa Calm   5.1 km/h 96 % 0 mm
11:22 -16.6 °C -17 °C 34120.7 hPa Calm   2.6 km/h 95 % 0 mm
11:27 -16.6 °C -17 °C 34130.9 hPa Calm   2.6 km/h 95 % 0 mm
11:32 -16.6 °C -16.9 °C 34120.7 hPa Calm   2.6 km/h 95 % 0 mm
11:37 -16.5 °C -16.9 °C 34120.7 hPa Calm   2.6 km/h 95 % 0 mm
11:42 -16.5 °C -17 °C 34120.7 hPa Calm   2.6 km/h 94 % 0 mm
11:47 -16.4 °C -16.9 °C 34130.9 hPa Calm   2.6 km/h 94 % 0 mm
11:52 -16.3 °C -16.7 °C 34130.9 hPa Calm   2.6 km/h 95 % 0 mm
11:57 -16.2 °C -16.7 °C 34120.7 hPa Calm   2.6 km/h 94 % 0 mm
12:02 -16.2 °C -16.7 °C 34120.7 hPa Calm   2.6 km/h 94 % 0 mm
12:07 -16.1 °C -16.6 °C 34120.7 hPa Calm   2.6 km/h 94 % 0 mm
12:12 -16 °C -16.6 °C 34120.7 hPa Calm   2.6 km/h 93 % 0 mm
12:17 -16 °C -16.6 °C 34107.2 hPa Calm   2.6 km/h 93 % 0 mm
12:22 -15.9 °C -16.5 °C 34107.2 hPa Calm   2.6 km/h 93 % 0 mm
12:27 -15.9 °C -16.6 °C 34107.2 hPa Calm   2.6 km/h 92 % 0 mm
12:32 -15.9 °C -16.6 °C 34107.2 hPa Calm   2.6 km/h 92 % 0 mm
12:42 -15.9 °C -16.6 °C 34107.2 hPa Calm     92 % 0 mm
12:47 -15.8 °C -16.4 °C 34107.2 hPa Calm     92 % 0 mm
12:52 -15.8 °C -16.4 °C 34107.2 hPa Calm     92 % 0 mm
12:57 -15.8 °C -16.6 °C 34107.2 hPa Calm     91 % 0 mm
13:02 -15.8 °C -16.5 °C 34107.2 hPa Calm     92 % 7.62 mm
13:07 -15.8 °C -16.4 °C 34097 hPa Calm   2.6 km/h 93 % 7.62 mm
13:17 -15.8 °C -16.4 °C 34097 hPa Calm   2.6 km/h 93 % 12.7 mm
13:22 -15.7 °C -16.3 °C 34097 hPa Calm     93 % 12.7 mm
13:27 -15.7 °C -16.2 °C 34097 hPa Calm     93 % 12.7 mm
13:32 -15.7 °C -16.2 °C 34097 hPa Calm     93 % 12.7 mm
13:37 -15.7 °C -16.2 °C 34097 hPa Calm     93 % 12.7 mm
13:42 -15.6 °C -16.2 °C 34097 hPa Calm     93 % 12.7 mm
13:47 -15.6 °C -16.2 °C 34097 hPa Calm     93 % 12.7 mm
13:52 -15.6 °C -16.2 °C 34097 hPa Calm   2.6 km/h 93 % 12.7 mm
13:57 -15.7 °C -16.2 °C 34097 hPa Calm   2.6 km/h 93 % 12.7 mm
14:02 -15.7 °C -16.2 °C 34097 hPa Calm   2.6 km/h 93 % 12.7 mm
14:07 -15.7 °C -16.4 °C 34097 hPa NE 2.6 km/h 2.6 km/h 92 % 12.7 mm
14:12 -15.8 °C -16.5 °C 34097 hPa Calm   5.1 km/h 91 % 12.7 mm
14:17 -15.8 °C -16.5 °C 34097 hPa Calm   5.1 km/h 91 % 7.62 mm
14:32 -15.7 °C -16.4 °C 34086.9 hPa Calm     92 % 12.7 mm
14:37 -15.6 °C -16.3 °C 34086.9 hPa Calm     92 % 12.7 mm
14:42 -15.6 °C -16.3 °C 34086.9 hPa Calm     91 % 12.7 mm
14:47 -15.7 °C -16.4 °C 34086.9 hPa Calm   2.6 km/h 91 % 12.7 mm
14:52 -15.7 °C -16.4 °C 34086.9 hPa Calm   2.6 km/h 91 % 12.7 mm
14:57 -15.7 °C -16.4 °C 34086.9 hPa Calm   2.6 km/h 91 % 12.7 mm
15:02 -15.7 °C -16.4 °C 34086.9 hPa Calm   2.6 km/h 91 % 12.7 mm
15:07 -15.7 °C -16.4 °C 34086.9 hPa Calm   2.6 km/h 91 % 12.7 mm
15:12 -15.7 °C -16.4 °C 34086.9 hPa Calm   2.6 km/h 92 % 12.7 mm
15:17 -15.7 °C -16.3 °C 34086.9 hPa Calm   2.6 km/h 92 % 12.7 mm
15:22 -15.7 °C -16.3 °C 34086.9 hPa Calm   2.6 km/h 92 % 12.7 mm
15:27 -15.7 °C -16.4 °C 34086.9 hPa Calm   2.6 km/h 91 % 12.7 mm
15:32 -15.7 °C -16.4 °C 34086.9 hPa Calm   2.6 km/h 91 % 12.7 mm
15:37 -15.6 °C -16.3 °C 34086.9 hPa Calm   2.6 km/h 91 % 12.7 mm
15:42 -15.6 °C -16.3 °C 34086.9 hPa Calm   2.6 km/h 91 % 12.7 mm
15:52 -15.6 °C -16.3 °C 34086.9 hPa Calm   2.6 km/h 91 % 12.7 mm
15:57 -15.7 °C -16.4 °C 34086.9 hPa Calm   2.6 km/h 91 % 12.7 mm
16:02 -15.6 °C -16.3 °C 34086.9 hPa Calm   5.1 km/h 92 % 12.7 mm
16:07 -15.5 °C -16.2 °C 34086.9 hPa Calm   5.1 km/h 92 % 7.62 mm
16:17 -15.4 °C -16.2 °C 34097 hPa Calm   5.1 km/h 91 % 7.62 mm
16:22 -15.4 °C -16.2 °C 34097 hPa Calm   5.1 km/h 91 % 0 mm
16:27 -15.5 °C -16.2 °C 34097 hPa Calm   2.6 km/h 91 % 0 mm
16:32 -15.5 °C -16.3 °C 34097 hPa Calm   2.6 km/h 90 % 0 mm
16:37 -15.5 °C -16.3 °C 34097 hPa Calm   2.6 km/h 90 % 0 mm
16:42 -15.4 °C -16.2 °C 34097 hPa Calm     91 % 0 mm
16:47 -15.4 °C -16.1 °C 34097 hPa Calm     92 % 0 mm
16:52 -15.5 °C -16.2 °C 34097 hPa Calm     92 % 0 mm
16:57 -15.5 °C -16.2 °C 34097 hPa Calm   2.6 km/h 92 % 0 mm
17:02 -15.5 °C -16.2 °C 34097 hPa SW 2.6 km/h 2.6 km/h 92 % 0 mm
17:12 -15.6 °C -16.3 °C 34097 hPa Calm   5.1 km/h 92 % 0 mm
17:17 -15.7 °C -16.3 °C 34097 hPa SW 2.6 km/h 5.1 km/h 92 % 0 mm
17:22 -15.7 °C -16.3 °C 34097 hPa SW 2.6 km/h 5.1 km/h 92 % 0 mm
17:27 -15.7 °C -16.3 °C 34107.2 hPa Calm   5.1 km/h 92 % 0 mm
17:32 -15.7 °C -16.2 °C 34107.2 hPa Calm   5.1 km/h 93 % 0 mm
17:37 -15.7 °C -16.4 °C 34107.2 hPa Calm   5.1 km/h 92 % 0 mm
17:42 -15.7 °C -16.3 °C 34107.2 hPa Calm   5.1 km/h 93 % 0 mm
17:47 -15.8 °C -16.3 °C 34107.2 hPa Calm   5.1 km/h 93 % 0 mm
17:52 -15.8 °C -16.3 °C 34107.2 hPa SW 5.1 km/h 7.7 km/h 93 % 0 mm
17:57 -15.8 °C -16.3 °C 34107.2 hPa WSW 2.6 km/h 7.7 km/h 93 % 0 mm
18:02 -15.8 °C -16.4 °C 34107.2 hPa SW 2.6 km/h 7.7 km/h 93 % 0 mm
18:07 -15.9 °C -16.4 °C 34107.2 hPa WSW 2.6 km/h 5.1 km/h 94 % 0 mm
18:12 -15.9 °C -16.4 °C 34107.2 hPa Calm   5.1 km/h 94 % 0 mm
18:17 -15.9 °C -16.4 °C 34107.2 hPa Calm   5.1 km/h 94 % 0 mm
18:22 -16 °C -16.5 °C 34107.2 hPa South 2.6 km/h 5.1 km/h 94 % 0 mm
18:27 -16.1 °C -16.6 °C 34107.2 hPa SW 2.6 km/h 5.1 km/h 94 % 0 mm
18:32 -16.2 °C -16.7 °C 34107.2 hPa Calm   5.1 km/h 94 % 0 mm
18:37 -16.2 °C -16.6 °C 34107.2 hPa SW 2.6 km/h 5.1 km/h 95 % 0 mm
18:47 -16.2 °C -16.6 °C 34107.2 hPa Calm   10.3 km/h 95 % 0 mm
18:52 -16.2 °C -16.6 °C 34107.2 hPa Calm   10.3 km/h 95 % 0 mm
18:57 -16.2 °C -16.6 °C 34107.2 hPa Calm   10.3 km/h 95 % 0 mm
19:02 -16.2 °C -16.6 °C 34107.2 hPa WSW 2.6 km/h 7.7 km/h 95 % 0 mm
19:07 -16.2 °C -16.6 °C 34107.2 hPa Calm   7.7 km/h 95 % 0 mm
19:12 -16.2 °C -16.6 °C 34107.2 hPa Calm   7.7 km/h 95 % 0 mm
19:17 -16.3 °C -16.7 °C 34107.2 hPa Calm   7.7 km/h 95 % 0 mm
19:22 -16.3 °C -16.7 °C 34107.2 hPa Calm   5.1 km/h 95 % 0 mm
19:32 -16.6 °C -17.1 °C 34107.2 hPa Calm   2.6 km/h 94 % 0 mm
19:37 -16.8 °C -17.3 °C 34107.2 hPa Calm   2.6 km/h 94 % 0 mm
19:42 -16.9 °C -17.3 °C 34107.2 hPa Calm   2.6 km/h 95 % 0 mm
19:52 -16.9 °C -17.3 °C 34120.7 hPa Calm   2.6 km/h 96 % 0 mm
19:57 -16.9 °C -17.2 °C 34120.7 hPa WSW 2.6 km/h 2.6 km/h 96 % 0 mm
20:07 -16.6 °C -16.8 °C 34120.7 hPa Calm   12.9 km/h 97 % 0 mm
20:12 -16.5 °C -16.7 °C 34120.7 hPa SSW 5.1 km/h 12.9 km/h 97 % 0 mm
20:17 -16.4 °C -16.8 °C 34120.7 hPa WNW 2.6 km/h 10.3 km/h 96 % 0 mm
20:22 -16.3 °C -16.7 °C 34120.7 hPa Calm   10.3 km/h 96 % 0 mm
20:27 -16.3 °C -16.7 °C 34120.7 hPa WSW 2.6 km/h 10.3 km/h 96 % 0 mm
20:32 -16.3 °C -16.7 °C 34120.7 hPa WSW 2.6 km/h 5.1 km/h 96 % 0 mm
20:42 -16.3 °C -16.7 °C 34120.7 hPa SW 7.7 km/h 7.7 km/h 96 % 0 mm
20:52 -16.3 °C -16.7 °C 34120.7 hPa WSW 2.6 km/h 10.3 km/h 96 % 0 mm
20:57 -16.3 °C -16.7 °C 34120.7 hPa SW 7.7 km/h 10.3 km/h 96 % 0 mm
21:07 -16.3 °C -16.7 °C 34120.7 hPa Calm   10.3 km/h 95 % 0 mm
21:12 -16.4 °C -16.8 °C 34120.7 hPa Calm   10.3 km/h 95 % 0 mm
21:22 -16.4 °C -16.8 °C 34120.7 hPa Calm   5.1 km/h 95 % 0 mm
21:27 -16.4 °C -16.8 °C 34107.2 hPa Calm   5.1 km/h 95 % 0 mm
21:32 -16.4 °C -16.8 °C 34107.2 hPa Calm   5.1 km/h 95 % 0 mm
21:37 -16.5 °C -16.9 °C 34120.7 hPa Calm   7.7 km/h 95 % 0 mm
21:42 -16.5 °C -16.9 °C 34120.7 hPa SW 5.1 km/h 10.3 km/h 95 % 0 mm
21:47 -16.6 °C -16.9 °C 34120.7 hPa SW 2.6 km/h 12.9 km/h 95 % 0 mm
21:52 -16.6 °C -16.9 °C 34120.7 hPa WSW 2.6 km/h 18.2 km/h 95 % 0 mm
21:57 -16.6 °C -16.9 °C 34120.7 hPa WSW 2.6 km/h 18.2 km/h 95 % 0 mm
22:02 -16.6 °C -17 °C 34120.7 hPa SW 5.1 km/h 18.2 km/h 95 % 0 mm
22:12 -16.6 °C -17 °C 34107.2 hPa Calm   15.6 km/h 95 % 0 mm
22:17 -16.6 °C -17 °C 34107.2 hPa Calm   12.9 km/h 95 % 0 mm
22:22 -16.6 °C -17 °C 34107.2 hPa Calm   12.9 km/h 95 % 0 mm
22:37 -16.6 °C -16.9 °C 34107.2 hPa Calm   7.7 km/h 95 % 0 mm
22:42 -16.6 °C -16.9 °C 34097 hPa Calm   5.1 km/h 95 % 0 mm
22:47 -16.6 °C -17 °C 34097 hPa Calm   5.1 km/h 95 % 0 mm
22:52 -16.7 °C -17.1 °C 34097 hPa Calm   5.1 km/h 95 % 0 mm
22:57 -16.8 °C -17.3 °C 34097 hPa Calm   2.6 km/h 94 % 0 mm
23:02 -16.9 °C -17.4 °C 34097 hPa Calm     94 % 0 mm
23:07 -17.1 °C -17.6 °C 34097 hPa Calm     94 % 0 mm
23:12 -17.2 °C -17.7 °C 34097 hPa Calm     94 % 0 mm
23:17 -17.2 °C -17.6 °C 34086.9 hPa Calm     95 % 0 mm
23:22 -17.2 °C -17.6 °C 34086.9 hPa Calm     95 % 0 mm
23:32 -17.2 °C -17.5 °C 34086.9 hPa Calm   2.6 km/h 96 % 0 mm
23:37 -17.1 °C -17.4 °C 34086.9 hPa Calm   2.6 km/h 96 % 0 mm
23:42 -17.1 °C -17.4 °C 34086.9 hPa Calm   2.6 km/h 96 % 0 mm
23:52 -17.1 °C -17.4 °C 34086.9 hPa Calm     96 % 0 mm
23:57 -17 °C -17.2 °C 34086.9 hPa Calm     97 % 0 mm
Meteo18
Compliments of Weather Underground - 4 mb

Script developed by  Jim McMurry - jmcmurry@mwt.net Adapted for the template by  Wim van der Kuil - Leuven-Template.eu

You find our weather info also at:

European Weather Network

Weather Underground

Equipment we use:

Weather-station
Davis Vue

Weather-program
Meteobridge

Weather-server
Raspberry PI 2 B+

Provider
1 and 1

Davis Vue

Meteobridge

Raspberry PI 2 B+

1 and 1